Time;durP1;ratioP1;P1;durP2;ratioP2;P2;SDS_P1;SDS_P2;PMS_P1;PMS_P2;Temp;Humidity;BMP_temperature;BMP_pressure;BME280_temperature;BME280_humidity;BME280_pressure;Samples;Min_cycle;Max_cycle;Signal;HPM_P1;HPM_P2
2023/07/29 00:01:51;;;;;;;0.20;0.20;;;;;;;;;;5075852;28;20464;-73
2023/07/29 00:04:16;;;;;;;0.20;0.20;;;;;;;;;;5075716;28;20040;-73
2023/07/29 00:06:41;;;;;;;0.20;0.20;;;;;;;;;;5075476;28;20040;-75
2023/07/29 00:09:07;;;;;;;0.20;0.20;;;;;;;;;;5075629;28;20365;-75
2023/07/29 00:11:34;;;;;;;0.20;0.20;;;;;;;;;;5075628;28;20109;-72
2023/07/29 00:14:03;;;;;;;0.20;0.20;;;;;;;;;;5075792;28;20021;-74
2023/07/29 00:16:28;;;;;;;0.20;0.20;;;;;;;;;;5075559;28;20036;-74
2023/07/29 00:18:53;;;;;;;0.20;0.20;;;;;;;;;;5075555;28;20364;-73
2023/07/29 00:21:19;;;;;;;0.10;0.10;;;;;;;;;;5075403;28;20031;-74
2023/07/29 00:23:45;;;;;;;0.20;0.20;;;;;;;;;;5075343;28;20041;-75
2023/07/29 00:26:10;;;;;;;0.20;0.20;;;;;;;;;;5075424;28;20025;-73
2023/07/29 00:28:35;;;;;;;0.20;0.20;;;;;;;;;;5075517;28;20064;-73
2023/07/29 00:31:02;;;;;;;0.20;0.20;;;;;;;;;;5075428;28;20024;-74
2023/07/29 00:33:27;;;;;;;0.20;0.20;;;;;;;;;;5075304;28;20036;-72
2023/07/29 00:35:52;;;;;;;0.20;0.20;;;;;;;;;;5057173;28;20124;-74
2023/07/29 00:38:18;;;;;;;0.47;0.47;;;;;;;;;;5075199;28;20072;-74
2023/07/29 00:40:44;;;;;;;0.30;0.30;;;;;;;;;;5075148;28;20036;-74
2023/07/29 00:43:09;;;;;;;0.25;0.25;;;;;;;;;;5057077;28;20549;-75
2023/07/29 00:45:35;;;;;;;0.20;0.20;;;;;;;;;;5075325;28;20430;-76
2023/07/29 00:48:01;;;;;;;0.20;0.20;;;;;;;;;;5075334;28;20487;-77
2023/07/29 00:50:27;;;;;;;0.20;0.20;;;;;;;;;;5074916;28;20040;-73
2023/07/29 00:52:53;;;;;;;0.10;0.10;;;;;;;;;;5074952;28;20085;-72
2023/07/29 00:55:19;;;;;;;0.10;0.10;;;;;;;;;;5075094;28;20057;-72
2023/07/29 00:57:48;;;;;;;0.10;0.10;;;;;;;;;;5074975;28;20484;-74
2023/07/29 01:00:14;;;;;;;0.20;0.20;;;;;;;;;;5055538;28;20020;-72
2023/07/29 01:02:40;;;;;;;0.20;0.20;;;;;;;;;;5073750;28;20507;-74
2023/07/29 01:05:06;;;;;;;0.20;0.20;;;;;;;;;;5074863;28;20036;-74
2023/07/29 01:07:31;;;;;;;0.20;0.20;;;;;;;;;;5074982;28;20045;-74
2023/07/29 01:09:58;;;;;;;0.20;0.20;;;;;;;;;;5074714;28;20033;-74
2023/07/29 01:12:42;;;;;;;0.20;0.20;;;;;;;;;;5074701;28;20028;-74
2023/07/29 01:15:16;;;;;;;0.20;0.20;;;;;;;;;;5074915;28;20037;-75
2023/07/29 01:17:49;;;;;;;0.20;0.20;;;;;;;;;;5074584;28;20048;-75
2023/07/29 01:20:15;;;;;;;0.25;0.25;;;;;;;;;;5073423;28;20463;-74
2023/07/29 01:22:41;;;;;;;0.20;0.20;;;;;;;;;;5057025;28;20028;-75
2023/07/29 01:25:07;;;;;;;0.20;0.20;;;;;;;;;;5074576;28;20051;-74
2023/07/29 01:27:32;;;;;;;0.20;0.20;;;;;;;;;;5056566;28;20235;-73
2023/07/29 01:29:58;;;;;;;0.20;0.20;;;;;;;;;;5074369;28;20041;-73
2023/07/29 01:32:33;;;;;;;0.20;0.20;;;;;;;;;;5073074;28;20035;-73
2023/07/29 01:35:13;;;;;;;0.20;0.20;;;;;;;;;;5074452;28;20537;-72
2023/07/29 01:37:39;;;;;;;0.20;0.20;;;;;;;;;;5074614;28;20456;-72
2023/07/29 01:40:06;;;;;;;0.20;0.20;;;;;;;;;;5073092;28;20036;-74
2023/07/29 01:42:32;;;;;;;0.20;0.20;;;;;;;;;;5073071;28;20024;-73
2023/07/29 01:44:57;;;;;;;0.20;0.20;;;;;;;;;;5074129;28;20090;-74
2023/07/29 01:47:24;;;;;;;0.20;0.20;;;;;;;;;;5039807;28;20040;-75
2023/07/29 01:49:50;;;;;;;0.20;0.20;;;;;;;;;;5074410;28;20028;-73
2023/07/29 01:52:15;;;;;;;0.20;0.20;;;;;;;;;;5074158;28;20379;-72
2023/07/29 01:54:41;;;;;;;0.20;0.20;;;;;;;;;;5056201;28;20392;-74
2023/07/29 01:57:06;;;;;;;0.20;0.20;;;;;;;;;;5073935;28;20028;-74
2023/07/29 01:59:32;;;;;;;0.20;0.20;;;;;;;;;;5055773;28;20400;-75
2023/07/29 02:01:57;;;;;;;0.20;0.20;;;;;;;;;;5055780;28;20036;-74
2023/07/29 02:04:23;;;;;;;0.10;0.10;;;;;;;;;;5074077;28;20112;-74
2023/07/29 02:06:48;;;;;;;0.20;0.20;;;;;;;;;;5072763;28;20059;-74
2023/07/29 02:09:14;;;;;;;0.20;0.20;;;;;;;;;;5073881;28;20040;-74
2023/07/29 02:11:39;;;;;;;0.20;0.20;;;;;;;;;;5073179;28;20025;-74
2023/07/29 02:14:05;;;;;;;0.20;0.20;;;;;;;;;;5055661;28;20074;-75
2023/07/29 02:16:32;;;;;;;0.15;0.15;;;;;;;;;;5073496;28;20064;-75
2023/07/29 02:18:58;;;;;;;0.20;0.20;;;;;;;;;;5073647;28;20064;-73
2023/07/29 02:21:24;;;;;;;0.20;0.20;;;;;;;;;;5055943;28;20079;-74
2023/07/29 02:23:49;;;;;;;0.20;0.20;;;;;;;;;;5055587;28;20377;-74
2023/07/29 02:26:15;;;;;;;0.30;0.30;;;;;;;;;;5073455;28;20119;-73
2023/07/29 02:28:40;;;;;;;0.20;0.20;;;;;;;;;;5073481;28;20040;-74
2023/07/29 02:31:14;;;;;;;0.20;0.20;;;;;;;;;;5055100;28;20028;-73
2023/07/29 02:33:40;;;;;;;0.20;0.20;;;;;;;;;;5072497;28;20075;-73
2023/07/29 02:36:06;;;;;;;0.20;0.20;;;;;;;;;;5073606;28;20409;-74
2023/07/29 02:38:31;;;;;;;0.20;0.20;;;;;;;;;;5055288;28;20045;-74
2023/07/29 02:40:56;;;;;;;0.20;0.20;;;;;;;;;;5055391;28;20064;-74
2023/07/29 02:43:22;;;;;;;0.20;0.20;;;;;;;;;;5055211;28;20127;-73
2023/07/29 02:45:47;;;;;;;0.20;0.20;;;;;;;;;;5055412;28;20025;-73
2023/07/29 02:48:13;;;;;;;0.10;0.10;;;;;;;;;;5072068;28;20040;-75
2023/07/29 02:50:38;;;;;;;0.20;0.20;;;;;;;;;;5055239;28;20035;-74
2023/07/29 02:53:04;;;;;;;0.20;0.20;;;;;;;;;;5055243;28;20041;-74
2023/07/29 02:55:29;;;;;;;0.20;0.20;;;;;;;;;;5073105;28;20052;-74
2023/07/29 02:57:55;;;;;;;0.20;0.20;;;;;;;;;;5072947;28;20094;-74
2023/07/29 03:00:20;;;;;;;0.20;0.20;;;;;;;;;;5054760;28;20087;-74
2023/07/29 03:02:46;;;;;;;0.20;0.20;;;;;;;;;;5051511;28;20399;-75
2023/07/29 03:05:11;;;;;;;0.20;0.20;;;;;;;;;;5051070;28;20499;-74
2023/07/29 03:07:36;;;;;;;0.20;0.20;;;;;;;;;;5069079;28;20024;-76
2023/07/29 03:10:02;;;;;;;0.20;0.20;;;;;;;;;;5067871;28;20372;-76
2023/07/29 03:12:27;;;;;;;0.20;0.20;;;;;;;;;;5069224;28;20475;-75
2023/07/29 03:14:53;;;;;;;0.20;0.20;;;;;;;;;;5069230;28;20115;-75
2023/07/29 03:17:19;;;;;;;0.20;0.20;;;;;;;;;;5067281;28;20396;-75
2023/07/29 03:19:44;;;;;;;0.20;0.20;;;;;;;;;;5069084;28;20040;-74
2023/07/29 03:22:09;;;;;;;0.10;0.10;;;;;;;;;;5067915;28;20021;-75
2023/07/29 03:24:35;;;;;;;0.10;0.10;;;;;;;;;;5068999;28;20052;-75
2023/07/29 03:27:00;;;;;;;0.10;0.10;;;;;;;;;;5068633;28;20483;-76
2023/07/29 03:29:26;;;;;;;0.15;0.15;;;;;;;;;;5050571;28;20041;-75
2023/07/29 03:31:52;;;;;;;0.20;0.20;;;;;;;;;;5050392;28;20107;-76
2023/07/29 03:34:17;;;;;;;0.10;0.10;;;;;;;;;;5067663;28;20041;-75
2023/07/29 03:36:47;;;;;;;0.20;0.20;;;;;;;;;;5050442;28;20081;-75
2023/07/29 03:39:13;;;;;;;0.10;0.10;;;;;;;;;;5050545;28;20058;-75
2023/07/29 03:41:38;;;;;;;0.20;0.20;;;;;;;;;;5068238;28;20450;-75
2023/07/29 03:44:04;;;;;;;0.20;0.20;;;;;;;;;;5068590;28;20480;-76
2023/07/29 03:46:29;;;;;;;0.20;0.20;;;;;;;;;;5068291;28;20032;-75
2023/07/29 03:48:56;;;;;;;0.20;0.20;;;;;;;;;;5050591;28;20032;-75
2023/07/29 03:51:22;;;;;;;0.20;0.20;;;;;;;;;;5067994;28;20040;-76
2023/07/29 03:53:47;;;;;;;0.20;0.20;;;;;;;;;;5068348;28;20039;-75
2023/07/29 03:56:13;;;;;;;0.20;0.20;;;;;;;;;;5050063;28;20033;-76
2023/07/29 03:58:38;;;;;;;0.20;0.20;;;;;;;;;;5067757;28;20033;-76
2023/07/29 04:01:04;;;;;;;0.20;0.20;;;;;;;;;;5049945;28;20042;-75
2023/07/29 04:03:30;;;;;;;0.20;0.20;;;;;;;;;;5049808;28;20028;-74
2023/07/29 04:05:55;;;;;;;0.20;0.20;;;;;;;;;;5050290;28;20036;-74
2023/07/29 04:08:21;;;;;;;0.20;0.20;;;;;;;;;;5049832;28;20039;-74
2023/07/29 04:10:47;;;;;;;0.20;0.20;;;;;;;;;;5067737;28;20025;-75
2023/07/29 04:13:13;;;;;;;0.20;0.20;;;;;;;;;;5067949;28;20040;-74
2023/07/29 04:15:38;;;;;;;0.10;0.10;;;;;;;;;;5067893;28;20408;-75
2023/07/29 04:18:04;;;;;;;0.20;0.20;;;;;;;;;;5049709;28;20563;-74
2023/07/29 04:20:30;;;;;;;0.20;0.20;;;;;;;;;;5049419;28;20093;-75
2023/07/29 04:22:55;;;;;;;0.20;0.20;;;;;;;;;;5049755;28;20123;-75
2023/07/29 04:25:20;;;;;;;0.20;0.20;;;;;;;;;;5067784;28;20545;-75
2023/07/29 04:27:46;;;;;;;0.20;0.20;;;;;;;;;;5067878;28;20472;-75
2023/07/29 04:30:12;;;;;;;0.20;0.20;;;;;;;;;;5049801;28;20067;-75
2023/07/29 04:32:37;;;;;;;0.20;0.20;;;;;;;;;;5049427;28;20551;-74
2023/07/29 04:35:06;;;;;;;;;;;;;;;;;;5052917;28;20033;-75
2023/07/29 04:37:32;;;;;;;0.20;0.20;;;;;;;;;;5053123;28;19912;-75
2023/07/29 04:39:57;;;;;;;0.20;0.20;;;;;;;;;;5053777;28;20052;-76
2023/07/29 04:42:23;;;;;;;0.10;0.10;;;;;;;;;;5071467;28;20170;-75
2023/07/29 04:44:49;;;;;;;0.20;0.20;;;;;;;;;;5053236;28;20063;-76
2023/07/29 04:47:14;;;;;;;0.15;0.15;;;;;;;;;;5071334;28;20039;-76
2023/07/29 04:49:40;;;;;;;0.20;0.20;;;;;;;;;;5053516;28;20020;-75
2023/07/29 04:52:05;;;;;;;0.20;0.20;;;;;;;;;;5071264;28;20405;-77
2023/07/29 04:54:31;;;;;;;0.20;0.20;;;;;;;;;;5071189;28;20029;-74
2023/07/29 04:56:56;;;;;;;0.20;0.20;;;;;;;;;;5071305;28;20025;-75
2023/07/29 04:59:22;;;;;;;0.20;0.20;;;;;;;;;;5070348;28;20033;-74
2023/07/29 05:01:47;;;;;;;0.10;0.10;;;;;;;;;;5071175;28;20036;-75
2023/07/29 05:04:12;;;;;;;0.20;0.20;;;;;;;;;;5070844;28;20040;-76
2023/07/29 05:06:38;;;;;;;0.20;0.20;;;;;;;;;;5053118;28;20032;-75
2023/07/29 05:09:14;;;;;;;0.20;0.20;;;;;;;;;;5053125;28;20483;-75
2023/07/29 05:11:39;;;;;;;0.65;0.65;;;;;;;;;;5052650;28;20041;-75
2023/07/29 05:14:06;;;;;;;0.20;0.20;;;;;;;;;;5052851;28;20101;-76
2023/07/29 05:16:31;;;;;;;0.20;0.20;;;;;;;;;;5052894;28;20055;-75
2023/07/29 05:18:57;;;;;;;0.20;0.20;;;;;;;;;;5070885;28;20789;-76
2023/07/29 05:21:22;;;;;;;0.20;0.20;;;;;;;;;;5070458;28;20044;-75
2023/07/29 05:23:48;;;;;;;0.20;0.20;;;;;;;;;;5052929;28;20036;-76
2023/07/29 05:26:13;;;;;;;0.20;0.20;;;;;;;;;;5070636;28;20044;-76
2023/07/29 05:28:39;;;;;;;0.15;0.15;;;;;;;;;;5052713;28;20052;-75
2023/07/29 05:31:04;;;;;;;0.15;0.15;;;;;;;;;;5070417;28;20055;-76
2023/07/29 05:33:30;;;;;;;0.10;0.10;;;;;;;;;;5052277;28;20379;-75
2023/07/29 05:35:55;;;;;;;0.22;0.22;;;;;;;;;;5052958;28;20037;-76
2023/07/29 05:38:20;;;;;;;0.20;0.20;;;;;;;;;;5052400;28;20400;-75
2023/07/29 05:40:47;;;;;;;0.20;0.20;;;;;;;;;;5052429;28;20086;-75
2023/07/29 05:43:14;;;;;;;0.20;0.20;;;;;;;;;;5070074;28;20447;-75
2023/07/29 05:45:40;;;;;;;0.20;0.20;;;;;;;;;;5051635;28;20036;-75
2023/07/29 05:48:06;;;;;;;0.20;0.20;;;;;;;;;;5070330;28;20055;-75
2023/07/29 05:50:31;;;;;;;0.20;0.20;;;;;;;;;;5070199;28;20024;-75
2023/07/29 05:52:57;;;;;;;0.20;0.20;;;;;;;;;;5070318;28;20043;-76
2023/07/29 05:55:22;;;;;;;0.20;0.20;;;;;;;;;;5070165;28;20423;-76
2023/07/29 05:57:48;;;;;;;0.10;0.10;;;;;;;;;;5070087;28;20039;-75
2023/07/29 06:00:14;;;;;;;0.20;0.20;;;;;;;;;;5069753;28;20032;-75
2023/07/29 06:02:40;;;;;;;0.20;0.20;;;;;;;;;;5070134;28;20546;-74
2023/07/29 06:05:08;;;;;;;0.20;0.20;;;;;;;;;;5051727;28;20036;-74
2023/07/29 06:07:34;;;;;;;0.20;0.20;;;;;;;;;;5052574;28;20043;-74
2023/07/29 06:09:59;;;;;;;0.20;0.20;;;;;;;;;;5069804;28;20063;-75
2023/07/29 06:12:26;;;;;;;0.20;0.20;;;;;;;;;;5070034;28;20115;-74
2023/07/29 06:14:51;;;;;;;0.25;0.25;;;;;;;;;;5051833;28;20545;-74
2023/07/29 06:17:17;;;;;;;0.20;0.20;;;;;;;;;;5069529;28;20031;-75
2023/07/29 06:19:42;;;;;;;0.20;0.20;;;;;;;;;;5069975;28;20032;-74
2023/07/29 06:22:09;;;;;;;0.20;0.20;;;;;;;;;;5069958;28;20488;-74
2023/07/29 06:24:34;;;;;;;0.20;0.20;;;;;;;;;;5051864;28;20036;-74
2023/07/29 06:27:00;;;;;;;1.15;1.10;;;;;;;;;;5069359;28;20032;-74
2023/07/29 06:29:25;;;;;;;3.40;1.02;;;;;;;;;;5069427;28;20044;-74
2023/07/29 06:31:51;;;;;;;0.22;0.22;;;;;;;;;;5069522;28;20071;-76
2023/07/29 06:34:17;;;;;;;0.20;0.20;;;;;;;;;;5069474;28;20028;-76
2023/07/29 06:36:42;;;;;;;0.20;0.20;;;;;;;;;;5070197;28;20166;-74
2023/07/29 06:39:07;;;;;;;0.30;0.30;;;;;;;;;;5069087;28;20036;-74
2023/07/29 06:41:33;;;;;;;0.20;0.20;;;;;;;;;;5069846;28;20050;-75
2023/07/29 06:44:03;;;;;;;0.50;0.50;;;;;;;;;;5051353;28;20032;-75
2023/07/29 06:46:29;;;;;;;0.20;0.20;;;;;;;;;;5069381;28;20055;-76
2023/07/29 06:48:54;;;;;;;0.20;0.20;;;;;;;;;;5069414;28;20032;-75
2023/07/29 06:51:19;;;;;;;0.20;0.20;;;;;;;;;;5069282;28;20389;-75
2023/07/29 06:53:45;;;;;;;0.28;0.28;;;;;;;;;;5069417;28;20090;-75
2023/07/29 06:56:10;;;;;;;0.20;0.20;;;;;;;;;;5068946;28;20033;-75
2023/07/29 06:58:35;;;;;;;0.30;0.30;;;;;;;;;;5068949;28;20456;-76
2023/07/29 07:01:03;;;;;;;0.40;0.40;;;;;;;;;;5068906;28;20187;-75
2023/07/29 07:03:28;;;;;;;0.30;0.30;;;;;;;;;;5069262;28;20043;-75
2023/07/29 07:05:54;;;;;;;0.30;0.30;;;;;;;;;;5069135;28;20037;-75
2023/07/29 07:08:19;;;;;;;0.20;0.20;;;;;;;;;;5069199;28;20038;-75
2023/07/29 07:10:46;;;;;;;0.85;0.52;;;;;;;;;;5069140;28;20040;-76
2023/07/29 07:13:11;;;;;;;0.30;0.30;;;;;;;;;;5068568;28;20064;-76
2023/07/29 07:15:37;;;;;;;0.40;0.40;;;;;;;;;;5069405;28;20494;-76
2023/07/29 07:18:02;;;;;;;0.38;0.38;;;;;;;;;;5069163;28;20056;-75
2023/07/29 07:20:28;;;;;;;0.73;0.73;;;;;;;;;;5069116;28;20082;-76
2023/07/29 07:22:54;;;;;;;0.35;0.35;;;;;;;;;;5068705;28;20047;-74
2023/07/29 07:25:19;;;;;;;0.20;0.20;;;;;;;;;;5068863;28;20067;-75
2023/07/29 07:27:45;;;;;;;0.20;0.20;;;;;;;;;;5068617;28;20072;-74
2023/07/29 07:30:10;;;;;;;0.30;0.30;;;;;;;;;;5068984;28;20404;-75
2023/07/29 07:32:36;;;;;;;0.30;0.30;;;;;;;;;;5068685;28;20450;-75
2023/07/29 07:35:01;;;;;;;0.40;0.40;;;;;;;;;;5068405;28;20131;-74
2023/07/29 07:37:27;;;;;;;0.40;0.40;;;;;;;;;;5068921;28;20123;-74
2023/07/29 07:39:52;;;;;;;0.30;0.30;;;;;;;;;;5068681;28;20035;-75
2023/07/29 07:42:18;;;;;;;0.30;0.30;;;;;;;;;;5068301;28;20039;-74
2023/07/29 07:44:43;;;;;;;0.30;0.30;;;;;;;;;;5068763;28;20107;-74
2023/07/29 07:47:08;;;;;;;0.40;0.40;;;;;;;;;;5068650;28;20090;-74
2023/07/29 07:49:34;;;;;;;0.40;0.40;;;;;;;;;;5068565;28;20037;-76
2023/07/29 07:51:59;;;;;;;0.30;0.30;;;;;;;;;;5068389;28;20032;-75
2023/07/29 07:54:25;;;;;;;7.43;2.60;;;;;;;;;;5068486;28;20399;-76
2023/07/29 07:56:50;;;;;;;0.40;0.40;;;;;;;;;;5068100;28;20043;-75
2023/07/29 07:59:16;;;;;;;0.50;0.50;;;;;;;;;;5067904;28;20399;-75
2023/07/29 08:01:41;;;;;;;1.85;1.30;;;;;;;;;;5068497;28;20041;-75
2023/07/29 08:04:07;;;;;;;0.60;0.60;;;;;;;;;;5068301;28;20064;-76
2023/07/29 08:06:32;;;;;;;0.40;0.40;;;;;;;;;;5067919;28;20395;-76
2023/07/29 08:08:58;;;;;;;0.40;0.40;;;;;;;;;;5069636;28;20046;-74
2023/07/29 08:11:23;;;;;;;2.35;1.60;;;;;;;;;;5071430;28;20025;-75
2023/07/29 08:13:49;;;;;;;0.40;0.40;;;;;;;;;;5071626;28;20040;-75
2023/07/29 08:16:14;;;;;;;0.40;0.40;;;;;;;;;;5071900;28;20032;-77
2023/07/29 08:18:40;;;;;;;0.30;0.30;;;;;;;;;;5053900;28;20134;-75
2023/07/29 08:21:05;;;;;;;0.45;0.45;;;;;;;;;;5071425;28;20036;-74
2023/07/29 08:23:31;;;;;;;0.30;0.30;;;;;;;;;;5072103;28;20066;-75
2023/07/29 08:26:01;;;;;;;0.50;0.50;;;;;;;;;;5071658;28;20028;-74
2023/07/29 08:28:31;;;;;;;0.40;0.40;;;;;;;;;;5071424;28;20071;-74
2023/07/29 08:30:56;;;;;;;0.40;0.40;;;;;;;;;;5071867;28;20114;-74
2023/07/29 08:33:21;;;;;;;0.70;0.70;;;;;;;;;;5071442;28;20118;-75
2023/07/29 08:35:47;;;;;;;0.30;0.30;;;;;;;;;;5071688;28;20082;-76
2023/07/29 08:38:12;;;;;;;0.57;0.57;;;;;;;;;;5053621;28;20482;-75
2023/07/29 08:40:41;;;;;;;0.30;0.30;;;;;;;;;;5071321;28;20020;-75
2023/07/29 08:43:07;;;;;;;0.40;0.40;;;;;;;;;;5070966;28;20036;-75
2023/07/29 08:45:34;;;;;;;0.30;0.30;;;;;;;;;;5071736;28;20028;-76
2023/07/29 08:48:02;;;;;;;0.40;0.40;;;;;;;;;;5071353;28;20056;-75
2023/07/29 08:50:28;;;;;;;0.40;0.40;;;;;;;;;;5071212;28;20038;-73
2023/07/29 08:52:53;;;;;;;0.88;0.60;;;;;;;;;;5071549;28;20116;-75
2023/07/29 08:55:19;;;;;;;0.50;0.50;;;;;;;;;;5070872;28;20020;-74
2023/07/29 08:57:45;;;;;;;0.30;0.30;;;;;;;;;;5070866;28;20040;-74
2023/07/29 09:00:11;;;;;;;0.38;0.38;;;;;;;;;;5071345;28;20029;-75
2023/07/29 09:02:36;;;;;;;0.40;0.40;;;;;;;;;;5070750;28;20032;-74
2023/07/29 09:05:02;;;;;;;0.38;0.38;;;;;;;;;;5071504;28;20139;-74
2023/07/29 09:07:28;;;;;;;0.40;0.40;;;;;;;;;;5070962;28;20036;-75
2023/07/29 09:09:54;;;;;;;0.40;0.40;;;;;;;;;;5071185;28;20076;-75
2023/07/29 09:12:19;;;;;;;1.10;0.80;;;;;;;;;;5070583;28;20064;-75
2023/07/29 09:14:44;;;;;;;0.35;0.35;;;;;;;;;;5071271;28;20029;-74
2023/07/29 09:17:10;;;;;;;0.30;0.30;;;;;;;;;;5070530;28;20562;-74
2023/07/29 09:19:35;;;;;;;0.70;0.70;;;;;;;;;;5070266;28;20036;-73
2023/07/29 09:22:01;;;;;;;1.50;1.25;;;;;;;;;;5070596;28;20387;-73
2023/07/29 09:24:29;;;;;;;0.50;0.50;;;;;;;;;;5070624;28;20036;-74
2023/07/29 09:26:55;;;;;;;0.40;0.40;;;;;;;;;;5070491;28;20036;-75
2023/07/29 09:29:23;;;;;;;1.15;0.70;;;;;;;;;;5070759;28;20380;-74
2023/07/29 09:31:49;;;;;;;1.10;0.88;;;;;;;;;;5070910;28;20025;-73
2023/07/29 09:34:15;;;;;;;3.83;1.08;;;;;;;;;;5070390;28;20081;-73
2023/07/29 09:36:41;;;;;;;0.50;0.50;;;;;;;;;;5070368;28;20353;-73
2023/07/29 09:39:10;;;;;;;2.78;1.10;;;;;;;;;;5070411;28;20036;-74
2023/07/29 09:41:35;;;;;;;2.28;1.80;;;;;;;;;;5052370;28;20079;-74
2023/07/29 09:44:02;;;;;;;0.40;0.40;;;;;;;;;;5070371;28;20435;-73
2023/07/29 09:46:37;;;;;;;0.50;0.50;;;;;;;;;;5070874;28;20107;-74
2023/07/29 09:49:03;;;;;;;0.85;0.85;;;;;;;;;;5070381;28;20033;-73
2023/07/29 09:51:29;;;;;;;1.13;1.02;;;;;;;;;;5070671;28;20028;-73
2023/07/29 09:53:55;;;;;;;1.85;1.55;;;;;;;;;;5052102;28;20040;-74
2023/07/29 09:56:24;;;;;;;2.58;1.13;;;;;;;;;;5070092;28;20016;-75
2023/07/29 09:58:50;;;;;;;0.75;0.50;;;;;;;;;;5069948;28;20051;-74
2023/07/29 10:01:16;;;;;;;2.45;1.48;;;;;;;;;;5069998;28;20025;-74
2023/07/29 10:03:42;;;;;;;1.45;0.95;;;;;;;;;;5070358;28;20029;-73
2023/07/29 10:06:07;;;;;;;1.05;0.65;;;;;;;;;;5070476;28;20384;-74
2023/07/29 10:08:38;;;;;;;1.67;0.90;;;;;;;;;;5069838;28;20028;-73
2023/07/29 10:11:07;;;;;;;0.80;0.57;;;;;;;;;;5069666;28;20036;-75
2023/07/29 10:13:33;;;;;;;0.55;0.50;;;;;;;;;;5070202;28;20082;-72
2023/07/29 10:15:59;;;;;;;0.32;0.32;;;;;;;;;;5069981;28;20060;-73
2023/07/29 10:18:24;;;;;;;0.95;0.70;;;;;;;;;;5069576;28;20072;-73
2023/07/29 10:20:50;;;;;;;0.47;0.47;;;;;;;;;;5070081;28;20033;-72
2023/07/29 10:23:17;;;;;;;0.77;0.77;;;;;;;;;;5069569;28;20040;-72
2023/07/29 10:25:45;;;;;;;3.85;1.35;;;;;;;;;;5069709;28;20124;-74
2023/07/29 10:28:12;;;;;;;0.30;0.30;;;;;;;;;;5069635;28;20083;-72
2023/07/29 10:30:38;;;;;;;0.75;0.57;;;;;;;;;;5069827;28;20036;-73
2023/07/29 10:33:04;;;;;;;2.60;1.23;;;;;;;;;;5069344;28;20044;-72
2023/07/29 10:35:30;;;;;;;0.40;0.40;;;;;;;;;;5069491;28;20052;-72
2023/07/29 10:37:56;;;;;;;0.50;0.50;;;;;;;;;;5069308;28;20064;-73
2023/07/29 10:40:22;;;;;;;0.70;0.70;;;;;;;;;;5069798;28;20033;-71
2023/07/29 10:43:01;;;;;;;7.95;3.53;;;;;;;;;;5069501;28;20047;-72
2023/07/29 10:45:35;;;;;;;1.00;0.90;;;;;;;;;;5069398;28;20028;-72
2023/07/29 10:48:04;;;;;;;1.00;0.88;;;;;;;;;;5069418;28;20468;-72
2023/07/29 10:50:30;;;;;;;;;;;;;;;;;;5069877;28;20065;-71
2023/07/29 10:52:56;;;;;;;0.83;0.83;;;;;;;;;;5051161;28;20392;-71
2023/07/29 10:55:27;;;;;;;0.50;0.50;;;;;;;;;;5068727;28;20366;-72
2023/07/29 10:58:03;;;;;;;0.77;0.70;;;;;;;;;;5069169;28;20036;-74
2023/07/29 11:00:30;;;;;;;0.63;0.63;;;;;;;;;;5069172;28;20033;-72
2023/07/29 11:03:00;;;;;;;0.80;0.70;;;;;;;;;;5069254;28;20114;-73
2023/07/29 11:05:26;;;;;;;3.67;1.50;;;;;;;;;;5069210;28;20040;-73
2023/07/29 11:07:51;;;;;;;1.75;0.43;;;;;;;;;;5069180;28;20048;-73
2023/07/29 11:10:17;;;;;;;0.40;0.40;;;;;;;;;;5068905;28;20032;-73
2023/07/29 11:12:47;;;;;;;0.77;0.60;;;;;;;;;;5069045;28;20021;-73
2023/07/29 11:15:15;;;;;;;3.10;1.20;;;;;;;;;;5068699;28;20078;-73
2023/07/29 11:17:51;;;;;;;0.47;0.47;;;;;;;;;;5068413;28;20037;-73
2023/07/29 11:20:17;;;;;;;0.88;0.80;;;;;;;;;;5068783;28;20043;-74
2023/07/29 11:22:43;;;;;;;0.50;0.50;;;;;;;;;;5068933;28;20032;-73
2023/07/29 11:25:10;;;;;;;0.77;0.77;;;;;;;;;;5068360;28;20476;-72
2023/07/29 11:27:36;;;;;;;2.05;1.10;;;;;;;;;;5068405;28;20039;-72
2023/07/29 11:30:05;;;;;;;0.40;0.40;;;;;;;;;;5068947;28;20033;-72
2023/07/29 11:32:30;;;;;;;0.73;0.70;;;;;;;;;;5068352;28;20151;-75
2023/07/29 11:34:56;;;;;;;0.60;0.60;;;;;;;;;;5068765;28;20120;-73
2023/07/29 11:37:21;;;;;;;1.20;1.10;;;;;;;;;;5068421;28;20391;-73
2023/07/29 11:39:47;;;;;;;0.70;0.70;;;;;;;;;;5050919;28;20051;-72
2023/07/29 11:42:13;;;;;;;0.38;0.38;;;;;;;;;;5068724;28;20032;-73
2023/07/29 11:44:38;;;;;;;0.52;0.52;;;;;;;;;;5067595;28;20036;-72
2023/07/29 11:47:07;;;;;;;0.60;0.60;;;;;;;;;;5067941;28;20423;-73
2023/07/29 11:49:33;;;;;;;0.95;0.80;;;;;;;;;;5068968;28;20039;-72
2023/07/29 11:51:58;;;;;;;3.17;2.97;;;;;;;;;;5068578;28;20025;-75
2023/07/29 11:54:25;;;;;;;0.32;0.32;;;;;;;;;;5068615;28;20044;-74
2023/07/29 11:56:50;;;;;;;0.30;0.30;;;;;;;;;;5068571;28;20032;-72
2023/07/29 11:59:16;;;;;;;0.80;0.80;;;;;;;;;;5068093;28;20392;-72
2023/07/29 12:01:41;;;;;;;0.50;0.50;;;;;;;;;;5068049;28;20036;-77
2023/07/29 12:04:06;;;;;;;0.70;0.70;;;;;;;;;;5068673;28;20276;-77
2023/07/29 12:06:32;;;;;;;0.60;0.60;;;;;;;;;;5068425;28;20040;-78
2023/07/29 12:08:58;;;;;;;0.43;0.43;;;;;;;;;;5068239;28;20098;-78
2023/07/29 12:11:24;;;;;;;0.63;0.63;;;;;;;;;;5067880;28;20466;-77
2023/07/29 12:13:49;;;;;;;0.60;0.60;;;;;;;;;;5068054;28;20036;-75
2023/07/29 12:16:18;;;;;;;0.68;0.60;;;;;;;;;;5068072;28;20475;-78
2023/07/29 12:18:43;;;;;;;0.98;0.90;;;;;;;;;;5033454;28;20151;-78
2023/07/29 12:21:09;;;;;;;1.10;1.00;;;;;;;;;;5050154;28;20466;-75
2023/07/29 12:23:35;;;;;;;0.50;0.50;;;;;;;;;;5068073;28;20020;-78
2023/07/29 12:26:01;;;;;;;0.50;0.50;;;;;;;;;;5068269;28;20051;-78
2023/07/29 12:28:26;;;;;;;1.75;0.80;;;;;;;;;;5068091;28;20033;-78
2023/07/29 12:30:55;;;;;;;0.70;0.70;;;;;;;;;;5068150;28;20116;-79
2023/07/29 12:33:21;;;;;;;;;;;;;;;;;;5050116;28;20040;-79
2023/07/29 12:35:46;;;;;;;1.13;1.02;;;;;;;;;;5067596;28;19919;-78
2023/07/29 12:38:20;;;;;;;0.50;0.50;;;;;;;;;;5067816;28;20036;-78
2023/07/29 12:40:46;;;;;;;0.80;0.80;;;;;;;;;;5067979;28;20037;-79
2023/07/29 12:43:11;;;;;;;0.52;0.52;;;;;;;;;;5049370;28;20368;-78
2023/07/29 12:45:39;;;;;;;0.40;0.40;;;;;;;;;;5067626;28;20064;-80
2023/07/29 12:48:05;;;;;;;0.50;0.50;;;;;;;;;;5050097;28;20033;-78
2023/07/29 12:50:30;;;;;;;0.43;0.43;;;;;;;;;;5067975;28;20166;-80
2023/07/29 12:52:56;;;;;;;0.50;0.50;;;;;;;;;;5049745;28;20028;-75
2023/07/29 12:55:21;;;;;;;0.70;0.70;;;;;;;;;;5051720;28;20433;-79
2023/07/29 12:57:46;;;;;;;0.57;0.57;;;;;;;;;;5070999;28;20036;-79
2023/07/29 13:00:12;;;;;;;0.45;0.45;;;;;;;;;;5071133;28;20158;-80
2023/07/29 13:02:38;;;;;;;1.65;0.80;;;;;;;;;;5053189;28;20064;-78
2023/07/29 13:05:04;;;;;;;0.68;0.43;;;;;;;;;;5070821;28;20113;-79
2023/07/29 13:07:29;;;;;;;0.70;0.60;;;;;;;;;;5071001;28;20032;-79
2023/07/29 13:09:55;;;;;;;8.65;0.85;;;;;;;;;;5053041;28;20479;-78
2023/07/29 13:12:20;;;;;;;1.30;1.13;;;;;;;;;;5070627;28;20036;-79
2023/07/29 13:14:45;;;;;;;1.30;0.77;;;;;;;;;;5070707;28;20036;-77
2023/07/29 13:17:11;;;;;;;1.38;0.77;;;;;;;;;;5052584;28;20036;-77
2023/07/29 13:19:37;;;;;;;0.65;0.60;;;;;;;;;;5052913;28;20369;-80
2023/07/29 13:22:02;;;;;;;0.52;0.52;;;;;;;;;;5052735;28;20037;-80
2023/07/29 13:24:28;;;;;;;1.20;0.80;;;;;;;;;;5070801;28;20070;-79
2023/07/29 13:26:53;;;;;;;0.60;0.60;;;;;;;;;;5070844;28;20519;-77
2023/07/29 13:29:19;;;;;;;1.15;0.47;;;;;;;;;;5052923;28;20048;-78
2023/07/29 13:31:45;;;;;;;1.08;0.98;;;;;;;;;;5070370;28;20044;-79
2023/07/29 13:34:10;;;;;;;3.25;1.38;;;;;;;;;;5070642;28;20464;-79
2023/07/29 13:36:35;;;;;;;0.80;0.80;;;;;;;;;;5070574;28;20458;-79
2023/07/29 13:39:01;;;;;;;0.43;0.43;;;;;;;;;;5070155;28;20040;-78
2023/07/29 13:41:26;;;;;;;0.60;0.60;;;;;;;;;;5070364;28;20033;-79
2023/07/29 13:43:52;;;;;;;2.05;0.80;;;;;;;;;;5070232;28;20031;-77
2023/07/29 13:46:21;;;;;;;0.60;0.60;;;;;;;;;;5070101;28;20035;-79
2023/07/29 13:48:46;;;;;;;1.60;0.77;;;;;;;;;;5070671;28;20040;-78
2023/07/29 13:51:12;;;;;;;0.90;0.73;;;;;;;;;;5070284;28;20476;-77
2023/07/29 13:53:37;;;;;;;1.02;0.50;;;;;;;;;;5070440;28;20423;-78
2023/07/29 13:56:04;;;;;;;0.40;0.40;;;;;;;;;;5070723;28;20079;-78
2023/07/29 13:58:29;;;;;;;0.88;0.77;;;;;;;;;;5070386;28;20033;-79
2023/07/29 14:00:55;;;;;;;0.50;0.50;;;;;;;;;;5070108;28;20033;-76
2023/07/29 14:03:20;;;;;;;0.40;0.40;;;;;;;;;;5069884;28;20089;-78
2023/07/29 14:05:46;;;;;;;1.83;1.00;;;;;;;;;;5069901;28;20037;-79
2023/07/29 14:08:11;;;;;;;1.80;1.05;;;;;;;;;;5069594;28;20033;-77
2023/07/29 14:10:36;;;;;;;6.07;1.20;;;;;;;;;;5069956;28;20035;-78
2023/07/29 14:13:02;;;;;;;1.05;0.85;;;;;;;;;;5069695;28;20029;-77
2023/07/29 14:15:28;;;;;;;0.68;0.60;;;;;;;;;;5070061;28;20028;-77
2023/07/29 14:17:53;;;;;;;0.28;0.28;;;;;;;;;;5051650;28;20053;-79
2023/07/29 14:20:19;;;;;;;0.60;0.60;;;;;;;;;;5069714;28;20377;-79
2023/07/29 14:22:45;;;;;;;0.43;0.43;;;;;;;;;;5069980;28;20070;-75
2023/07/29 14:25:10;;;;;;;0.47;0.47;;;;;;;;;;5052075;28;20037;-77
2023/07/29 14:27:36;;;;;;;0.95;0.60;;;;;;;;;;5069570;28;20033;-78
2023/07/29 14:30:03;;;;;;;2.63;0.90;;;;;;;;;;5069486;28;20025;-77
2023/07/29 14:32:29;;;;;;;0.52;0.52;;;;;;;;;;5051999;28;20040;-78
2023/07/29 14:34:54;;;;;;;1.00;0.50;;;;;;;;;;5069807;28;20039;-78
2023/07/29 14:37:19;;;;;;;0.43;0.43;;;;;;;;;;5051346;28;20115;-76